createdAt,value
2022-08-09T00:00:05.849Z,66.60
2022-08-09T00:01:10.658Z,66.80
2022-08-09T00:02:21.050Z,66.85
2022-08-09T00:04:06.166Z,66.97
2022-08-09T00:05:03.580Z,67.59
2022-08-09T00:06:23.036Z,67.54
2022-08-09T00:07:29.752Z,67.90
2022-08-09T00:08:51.927Z,67.68
2022-08-09T00:09:54.333Z,67.16
2022-08-09T00:10:58.943Z,66.82
2022-08-09T00:12:03.896Z,66.77
2022-08-09T00:13:16.658Z,66.42
2022-08-09T00:14:30.640Z,66.38
2022-08-09T00:15:57.912Z,66.08
2022-08-09T00:17:06.721Z,65.61
2022-08-09T00:18:11.410Z,65.10
2022-08-09T00:19:18.567Z,65.06
2022-08-09T00:20:21.344Z,64.69
2022-08-09T00:21:26.537Z,64.30
2022-08-09T00:22:31.666Z,64.00
2022-08-09T00:23:55.257Z,64.55
2022-08-09T00:25:08.534Z,64.49
2022-08-09T00:26:12.439Z,64.97
2022-08-09T00:27:19.201Z,65.33
2022-08-09T00:28:23.048Z,66.05
2022-08-09T00:29:39.117Z,66.24
2022-08-09T00:30:55.863Z,66.55
2022-08-09T00:32:01.177Z,67.11
2022-08-09T00:33:05.530Z,67.19
2022-08-09T00:34:10.835Z,67.44
2022-08-09T00:35:15.692Z,67.66
2022-08-09T00:36:18.714Z,67.44
2022-08-09T00:37:24.069Z,67.44
2022-08-09T00:38:29.140Z,67.43
2022-08-09T00:40:10.405Z,67.23
2022-08-09T00:40:55.923Z,67.48
2022-08-09T00:44:09.935Z,68.02
2022-08-09T00:44:15.930Z,67.56
2022-08-09T00:44:49.798Z,68.24
2022-08-09T00:45:53.941Z,68.66
2022-08-09T00:47:04.775Z,69.19
2022-08-09T00:48:07.851Z,69.78
2022-08-09T00:49:20.601Z,70.42
2022-08-09T00:50:23.636Z,70.71
2022-08-09T00:51:28.426Z,70.86
2022-08-09T00:52:37.557Z,70.44
2022-08-09T00:53:46.435Z,70.58
2022-08-09T00:54:49.458Z,70.92
2022-08-09T00:56:04.750Z,70.79
2022-08-09T00:57:08.824Z,71.01
2022-08-09T00:58:25.561Z,71.34
2022-08-09T00:59:41.319Z,71.57
2022-08-09T01:00:52.741Z,72.16
2022-08-09T01:01:58.591Z,72.52
2022-08-09T01:03:12.504Z,72.61
2022-08-09T01:04:28.725Z,72.84
2022-08-09T01:05:51.670Z,73.07
2022-08-09T01:07:07.039Z,73.35
2022-08-09T01:08:26.863Z,73.76
2022-08-09T01:09:42.620Z,74.18
2022-08-09T01:10:55.388Z,74.43
2022-08-09T01:12:04.046Z,74.18
2022-08-09T01:13:18.197Z,74.26
2022-08-09T01:14:33.348Z,74.47
2022-08-09T01:15:40.889Z,74.57
2022-08-09T01:16:49.760Z,74.75
2022-08-09T01:17:59.486Z,75.24
2022-08-09T01:19:39.953Z,76.10
2022-08-09T01:20:48.718Z,77.05
2022-08-09T01:22:01.320Z,78.61
2022-08-09T01:24:00.849Z,78.54
2022-08-09T01:25:00.841Z,78.08
2022-08-09T01:26:18.471Z,78.66
2022-08-09T01:27:27.378Z,79.09
2022-08-09T01:28:32.281Z,79.17
2022-08-09T01:29:56.304Z,79.34
2022-08-09T01:31:01.325Z,79.52
2022-08-09T01:32:31.361Z,79.59
2022-08-09T01:33:41.794Z,79.43
2022-08-09T01:34:45.272Z,79.32
2022-08-09T01:35:57.445Z,79.47
2022-08-09T01:37:04.757Z,79.54
2022-08-09T01:38:15.372Z,80.02
2022-08-09T01:39:19.962Z,79.92
2022-08-09T01:40:31.157Z,79.96
2022-08-09T01:41:36.346Z,79.73
2022-08-09T01:43:01.506Z,79.42
2022-08-09T01:44:06.288Z,79.42
2022-08-09T01:45:13.837Z,79.68
2022-08-09T01:46:18.242Z,79.82
2022-08-09T01:47:31.394Z,80.14
2022-08-09T01:48:36.172Z,80.60
2022-08-09T01:49:48.878Z,80.79
2022-08-09T01:50:55.531Z,80.98
2022-08-09T01:52:07.434Z,80.45
2022-08-09T01:53:20.026Z,80.26
2022-08-09T01:54:32.847Z,80.63
2022-08-09T01:55:35.784Z,80.74
2022-08-09T01:56:47.101Z,80.72
2022-08-09T01:57:58.608Z,80.69
2022-08-09T01:59:08.478Z,81.12
2022-08-09T02:00:19.436Z,80.79
2022-08-09T02:01:59.405Z,80.79
2022-08-09T02:03:05.339Z,80.83
2022-08-09T02:04:13.499Z,81.29
2022-08-09T02:05:21.683Z,81.92
2022-08-09T02:06:58.705Z,81.73
2022-08-09T02:08:41.308Z,82.27
2022-08-09T02:09:41.874Z,82.45
2022-08-09T02:10:51.654Z,82.10
2022-08-09T02:11:55.552Z,82.39
2022-08-09T02:13:06.095Z,82.30
2022-08-09T02:14:15.764Z,82.64
2022-08-09T02:15:48.812Z,82.89
2022-08-09T02:16:59.873Z,82.32
2022-08-09T02:18:23.669Z,82.24
2022-08-09T02:19:38.812Z,82.56
2022-08-09T02:20:51.476Z,83.07
2022-08-09T02:21:58.271Z,82.89
2022-08-09T02:23:09.041Z,83.19
2022-08-09T02:24:26.467Z,83.40
2022-08-09T02:25:42.649Z,83.67
2022-08-09T02:26:55.948Z,82.90
2022-08-09T02:28:09.770Z,83.18
2022-08-09T02:29:24.799Z,83.29
2022-08-09T02:30:34.457Z,83.28
2022-08-09T02:31:41.760Z,83.29
2022-08-09T02:32:51.047Z,83.33
2022-08-09T02:34:07.252Z,83.37
2022-08-09T02:36:01.304Z,84.06
2022-08-09T02:36:54.494Z,84.06
2022-08-09T02:38:00.835Z,84.21
2022-08-09T02:39:14.245Z,84.45
2022-08-09T02:40:27.119Z,84.73
2022-08-09T02:41:41.219Z,84.79
2022-08-09T02:42:51.168Z,85.35
2022-08-09T02:43:59.948Z,85.94
2022-08-09T02:45:17.572Z,86.50
2022-08-09T02:46:21.612Z,86.76
2022-08-09T02:47:26.962Z,86.84
2022-08-09T02:48:39.090Z,87.01
2022-08-09T02:50:01.617Z,87.15
2022-08-09T02:51:06.883Z,87.22
2022-08-09T02:52:16.592Z,87.42
2022-08-09T02:53:27.457Z,87.51
2022-08-09T02:54:32.894Z,87.70
2022-08-09T02:55:46.204Z,88.14
2022-08-09T02:56:54.017Z,89.00
2022-08-09T02:58:35.270Z,89.32
2022-08-09T02:59:36.359Z,90.20
2022-08-09T03:00:58.276Z,90.40
2022-08-09T03:02:07.080Z,91.01
2022-08-09T03:03:21.712Z,91.74
2022-08-09T03:04:42.803Z,92.18
2022-08-09T03:05:46.688Z,92.57
2022-08-09T03:06:53.678Z,92.51
2022-08-09T03:07:59.541Z,92.37
2022-08-09T03:09:03.132Z,92.43
2022-08-09T03:10:09.290Z,92.47
2022-08-09T03:12:05.205Z,92.46
2022-08-09T03:12:42.294Z,92.08
2022-08-09T03:13:58.428Z,92.58
2022-08-09T03:15:05.799Z,92.25
2022-08-09T03:16:11.433Z,92.02
2022-08-09T03:17:26.392Z,92.12
2022-08-09T03:18:30.642Z,92.38
2022-08-09T03:19:59.415Z,92.83
2022-08-09T03:21:04.012Z,92.74
2022-08-09T03:22:12.260Z,93.10
2022-08-09T03:23:32.740Z,93.65
2022-08-09T03:24:51.055Z,93.38
2022-08-09T03:26:04.996Z,93.26
2022-08-09T03:27:09.405Z,93.14
2022-08-09T03:28:16.316Z,93.21
2022-08-09T03:29:22.620Z,93.67
2022-08-09T03:30:33.717Z,93.45
2022-08-09T03:31:42.595Z,93.63
2022-08-09T03:33:17.201Z,93.55
2022-08-09T03:34:20.571Z,93.95
2022-08-09T03:36:36.899Z,93.52
2022-08-09T03:37:55.835Z,92.85
2022-08-09T03:39:02.271Z,92.83
2022-08-09T03:40:06.105Z,92.72
2022-08-09T03:41:15.439Z,92.92
2022-08-09T03:42:26.284Z,93.29
2022-08-09T03:43:33.721Z,93.55
2022-08-09T03:44:38.561Z,93.97
2022-08-09T03:46:04.341Z,94.41
2022-08-09T03:47:10.452Z,94.25
2022-08-09T03:48:12.528Z,94.61
2022-08-09T03:49:25.453Z,94.41
2022-08-09T03:50:36.621Z,94.37
2022-08-09T03:51:56.443Z,94.49
2022-08-09T03:53:06.104Z,94.39
2022-08-09T03:54:15.134Z,94.69
2022-08-09T03:55:22.197Z,94.66
2022-08-09T03:56:25.541Z,95.06
2022-08-09T03:57:30.242Z,95.03
2022-08-09T03:58:34.198Z,95.40
2022-08-09T03:59:43.277Z,95.60
2022-08-09T04:00:56.777Z,95.71
2022-08-09T04:02:02.621Z,95.80
2022-08-09T04:03:15.290Z,95.97
2022-08-09T04:04:22.107Z,95.89
2022-08-09T04:05:29.556Z,96.12
2022-08-09T04:06:36.428Z,96.20
2022-08-09T04:07:52.502Z,96.43
2022-08-09T04:09:02.867Z,96.78
2022-08-09T04:10:29.099Z,96.84
2022-08-09T04:11:51.559Z,97.08
2022-08-09T04:12:57.711Z,97.39
2022-08-09T04:14:54.158Z,97.56
2022-08-09T04:15:40.591Z,97.62
2022-08-09T04:16:47.421Z,97.25
2022-08-09T04:17:52.755Z,97.21
2022-08-09T04:19:02.386Z,96.83
2022-08-09T04:20:08.480Z,96.78
2022-08-09T04:21:13.109Z,96.75
2022-08-09T04:22:15.128Z,96.37
2022-08-09T04:23:24.488Z,96.72
2022-08-09T04:24:27.711Z,96.53
2022-08-09T04:25:32.980Z,96.60
2022-08-09T04:26:38.263Z,96.71
2022-08-09T04:27:48.916Z,96.74
2022-08-09T04:28:54.074Z,96.61
2022-08-09T04:30:02.635Z,96.69
2022-08-09T04:31:08.333Z,96.98
2022-08-09T04:32:14.274Z,97.26
2022-08-09T04:33:16.342Z,96.95
2022-08-09T04:34:30.727Z,97.21
2022-08-09T04:35:34.278Z,97.81
2022-08-09T04:36:41.330Z,97.79
2022-08-09T04:37:54.890Z,98.61
2022-08-09T04:38:59.567Z,98.83
2022-08-09T04:40:04.590Z,99.37
2022-08-09T04:41:09.810Z,99.61
2022-08-09T04:42:16.686Z,100.00
2022-08-09T04:43:20.745Z,100.00
2022-08-09T04:44:26.236Z,100.00
2022-08-09T04:45:30.659Z,100.00
2022-08-09T04:46:38.270Z,100.00
2022-08-09T04:48:02.101Z,100.00
2022-08-09T04:49:07.828Z,100.00
2022-08-09T04:50:15.614Z,100.00
2022-08-09T04:51:21.796Z,100.00
2022-08-09T04:52:30.620Z,100.00
2022-08-09T04:53:32.676Z,100.00
2022-08-09T04:54:39.354Z,100.00
2022-08-09T04:55:57.280Z,100.00
2022-08-09T04:57:03.790Z,99.98
2022-08-09T04:58:09.938Z,99.65
2022-08-09T04:59:15.458Z,99.01
2022-08-09T05:00:20.830Z,98.40
2022-08-09T05:01:22.941Z,98.19
2022-08-09T05:02:28.942Z,98.34
2022-08-09T05:03:42.567Z,98.34
2022-08-09T05:04:48.467Z,97.73
2022-08-09T05:06:04.334Z,96.89
2022-08-09T05:07:12.848Z,96.12
2022-08-09T05:08:21.332Z,94.33
2022-08-09T05:09:48.791Z,94.31
2022-08-09T05:10:50.730Z,94.25
2022-08-09T05:11:52.774Z,94.30
2022-08-09T05:12:57.706Z,94.68
2022-08-09T05:14:01.739Z,93.97
2022-08-09T05:15:38.743Z,93.89
2022-08-09T05:16:58.197Z,93.36
2022-08-09T05:18:38.047Z,92.43
2022-08-09T05:19:25.800Z,90.51
2022-08-09T05:20:29.966Z,90.12
2022-08-09T05:21:47.152Z,88.71
2022-08-09T05:23:57.134Z,87.67
2022-08-09T05:24:24.301Z,87.15
2022-08-09T05:25:28.341Z,86.76
2022-08-09T05:26:45.519Z,86.09
2022-08-09T05:27:48.476Z,86.50
2022-08-09T05:28:53.262Z,85.41
2022-08-09T05:29:55.316Z,83.96
2022-08-09T05:31:00.077Z,83.83
2022-08-09T05:32:11.783Z,83.39
2022-08-09T05:33:26.378Z,82.88
2022-08-09T05:34:37.618Z,82.88
2022-08-09T05:35:47.038Z,82.39
2022-08-09T05:36:58.836Z,80.84
2022-08-09T05:38:04.226Z,80.33
2022-08-09T05:39:10.409Z,80.88
2022-08-09T05:40:13.428Z,80.75
2022-08-09T05:41:18.537Z,80.85
2022-08-09T05:42:22.085Z,79.84
2022-08-09T05:43:35.381Z,79.28
2022-08-09T05:44:38.553Z,78.86
2022-08-09T05:45:56.715Z,79.38
2022-08-09T05:46:59.434Z,78.21
2022-08-09T05:48:03.981Z,77.93
2022-08-09T05:49:07.441Z,77.43
2022-08-09T05:50:39.978Z,76.82
2022-08-09T05:51:55.465Z,76.40
2022-08-09T05:53:02.547Z,75.97
2022-08-09T05:54:05.825Z,75.76
2022-08-09T05:55:20.669Z,74.62
2022-08-09T05:56:26.466Z,74.03
2022-08-09T05:57:50.814Z,73.34
2022-08-09T05:58:58.592Z,72.41
2022-08-09T06:00:01.081Z,70.77
2022-08-09T06:01:06.709Z,70.56
2022-08-09T06:02:09.976Z,70.22
2022-08-09T06:03:19.910Z,69.64
2022-08-09T06:04:23.364Z,69.00
2022-08-09T06:05:30.654Z,69.01
2022-08-09T06:06:53.688Z,68.22
2022-08-09T06:08:07.896Z,68.48
2022-08-09T06:09:40.798Z,67.46
2022-08-09T06:10:40.963Z,66.84
2022-08-09T06:11:56.821Z,66.72
2022-08-09T06:13:04.571Z,66.63
2022-08-09T06:14:14.791Z,66.83
2022-08-09T06:15:20.355Z,66.05
2022-08-09T06:16:23.670Z,66.35
2022-08-09T06:17:40.087Z,66.42
2022-08-09T06:18:42.789Z,65.72
2022-08-09T06:19:48.403Z,65.00
2022-08-09T06:20:54.883Z,65.15
2022-08-09T06:22:02.708Z,64.91
2022-08-09T06:23:08.411Z,64.45
2022-08-09T06:24:16.945Z,64.40
2022-08-09T06:25:19.385Z,64.60
2022-08-09T06:26:28.155Z,64.17
2022-08-09T06:27:42.871Z,63.91
2022-08-09T06:28:45.646Z,64.21
2022-08-09T06:29:58.591Z,62.80
2022-08-09T06:31:11.689Z,63.05
2022-08-09T06:32:53.452Z,62.71
2022-08-09T06:33:42.148Z,62.88
2022-08-09T06:34:53.167Z,62.13
2022-08-09T06:35:58.504Z,61.95
2022-08-09T06:37:00.736Z,62.35
2022-08-09T06:38:06.940Z,61.86
2022-08-09T06:39:12.753Z,60.55
2022-08-09T06:40:21.787Z,60.38
2022-08-09T06:42:07.531Z,60.85
2022-08-09T06:42:51.389Z,60.58
2022-08-09T06:43:53.447Z,61.33
2022-08-09T06:44:58.273Z,61.17
2022-08-09T06:46:07.568Z,60.72
2022-08-09T06:47:15.410Z,60.11
2022-08-09T06:48:17.436Z,59.29
2022-08-09T06:50:12.234Z,58.84
2022-08-09T06:50:57.364Z,59.67
2022-08-09T06:52:02.917Z,58.66
2022-08-09T06:53:07.958Z,58.46
2022-08-09T06:54:16.011Z,58.06
2022-08-09T06:55:30.121Z,57.95
2022-08-09T06:56:34.145Z,57.21
2022-08-09T06:58:01.059Z,56.94
2022-08-09T07:00:51.087Z,57.68
2022-08-09T07:00:55.907Z,55.85
2022-08-09T07:01:59.665Z,55.74
2022-08-09T07:03:08.585Z,56.36
2022-08-09T07:04:20.226Z,56.40
2022-08-09T07:05:22.561Z,55.97
2022-08-09T07:06:27.932Z,55.09
2022-08-09T07:08:00.847Z,54.56
2022-08-09T07:08:56.495Z,54.81
2022-08-09T07:10:14.324Z,54.66
2022-08-09T07:11:25.843Z,53.96
2022-08-09T07:12:40.600Z,55.37
2022-08-09T07:14:05.009Z,54.75
2022-08-09T07:16:35.324Z,54.61
2022-08-09T07:16:41.533Z,54.86
2022-08-09T07:17:52.607Z,53.71
2022-08-09T07:19:01.122Z,53.70
2022-08-09T07:20:03.338Z,54.13
2022-08-09T07:21:08.831Z,53.93
2022-08-09T07:22:11.655Z,54.72
2022-08-09T07:23:18.769Z,53.27
2022-08-09T07:24:21.997Z,53.00
2022-08-09T07:25:42.781Z,53.36
2022-08-09T07:26:45.998Z,51.34
2022-08-09T07:27:55.742Z,52.52
2022-08-09T07:29:09.328Z,52.75
2022-08-09T07:30:18.298Z,52.62
2022-08-09T07:31:20.443Z,51.71
2022-08-09T07:32:32.022Z,50.94
2022-08-09T07:33:52.920Z,51.61
2022-08-09T07:35:00.986Z,50.61
2022-08-09T07:36:09.387Z,51.43
2022-08-09T07:37:15.797Z,51.00
2022-08-09T07:38:18.673Z,51.22
2022-08-09T07:39:40.795Z,50.37
2022-08-09T07:41:08.318Z,48.78
2022-08-09T07:42:11.765Z,49.82
2022-08-09T07:43:17.090Z,49.82
2022-08-09T07:44:30.284Z,49.70
2022-08-09T07:45:39.779Z,50.11
2022-08-09T07:46:43.072Z,48.93
2022-08-09T07:48:00.961Z,48.45
2022-08-09T07:49:09.256Z,49.08
2022-08-09T07:50:17.783Z,48.69
2022-08-09T07:52:05.878Z,48.42
2022-08-09T07:52:47.124Z,48.41
2022-08-09T07:54:06.183Z,49.83
2022-08-09T07:55:12.643Z,49.96
2022-08-09T07:56:26.830Z,49.51
2022-08-09T07:57:36.029Z,49.45
2022-08-09T07:58:38.429Z,50.40
2022-08-09T07:59:45.695Z,48.51
2022-08-09T08:00:59.165Z,48.46
2022-08-09T08:02:16.651Z,47.44
2022-08-09T08:03:21.590Z,47.81
2022-08-09T08:04:32.936Z,47.13
2022-08-09T08:05:39.181Z,46.83
2022-08-09T08:07:00.175Z,46.57
2022-08-09T08:09:01.542Z,47.20
2022-08-09T08:09:51.774Z,47.69
2022-08-09T08:11:15.182Z,47.28
2022-08-09T08:12:29.563Z,47.25
2022-08-09T08:13:39.966Z,46.05
2022-08-09T08:15:00.808Z,45.12
2022-08-09T08:16:03.502Z,43.90
2022-08-09T08:17:08.938Z,44.26
2022-08-09T08:18:16.228Z,44.89
2022-08-09T08:19:22.037Z,45.05
2022-08-09T08:20:29.561Z,47.28
2022-08-09T08:21:39.471Z,44.47
2022-08-09T08:22:41.961Z,44.23
2022-08-09T08:23:56.165Z,44.27
2022-08-09T08:24:58.482Z,44.15
2022-08-09T08:26:08.022Z,43.99
2022-08-09T08:27:16.500Z,44.05
2022-08-09T08:28:32.038Z,44.97
2022-08-09T08:29:39.612Z,44.74
2022-08-09T08:30:50.308Z,43.72
2022-08-09T08:32:03.248Z,43.37
2022-08-09T08:33:11.983Z,43.12
2022-08-09T08:34:14.300Z,42.29
2022-08-09T08:35:19.077Z,42.51
2022-08-09T08:36:28.375Z,42.22
2022-08-09T08:37:41.453Z,42.18
2022-08-09T08:39:00.029Z,42.03
2022-08-09T08:40:05.289Z,42.25
2022-08-09T08:41:07.844Z,42.11
2022-08-09T08:42:14.425Z,41.20
2022-08-09T08:43:19.157Z,40.86
2022-08-09T08:44:31.793Z,40.26
2022-08-09T08:45:51.743Z,40.42
2022-08-09T08:47:04.525Z,40.52
2022-08-09T08:48:19.570Z,40.10
2022-08-09T08:49:26.817Z,39.87
2022-08-09T08:50:45.468Z,40.33
2022-08-09T08:52:00.181Z,40.29
2022-08-09T08:53:15.864Z,40.73
2022-08-09T08:54:28.113Z,41.08
2022-08-09T08:55:32.358Z,39.70
2022-08-09T08:56:38.566Z,40.14
2022-08-09T08:57:56.586Z,40.14
2022-08-09T08:59:07.968Z,39.06
2022-08-09T09:00:30.230Z,38.98
2022-08-09T09:01:52.152Z,38.80
2022-08-09T09:03:12.037Z,38.85
2022-08-09T09:04:27.087Z,39.31
2022-08-09T09:05:59.925Z,39.69
2022-08-09T09:07:08.123Z,37.99
2022-08-09T09:08:30.388Z,37.73
2022-08-09T09:09:58.763Z,37.57
2022-08-09T09:11:05.836Z,37.82
2022-08-09T09:12:12.130Z,37.38
2022-08-09T09:13:22.323Z,36.16
2022-08-09T09:14:27.176Z,37.28
2022-08-09T09:15:35.017Z,37.68
2022-08-09T09:16:37.163Z,37.11
2022-08-09T09:17:49.243Z,36.77
2022-08-09T09:19:10.815Z,36.65
2022-08-09T09:20:21.280Z,37.40
2022-08-09T09:21:26.201Z,35.83
2022-08-09T09:22:31.492Z,35.16
2022-08-09T09:23:49.795Z,34.83
2022-08-09T09:25:39.305Z,32.29
2022-08-09T09:26:27.875Z,31.23
2022-08-09T09:28:05.804Z,30.05
2022-08-09T09:29:04.260Z,29.73
2022-08-09T09:30:31.560Z,29.82
2022-08-09T09:32:03.467Z,29.61
2022-08-09T09:33:13.740Z,29.80
2022-08-09T09:34:18.320Z,29.14
2022-08-09T09:35:24.616Z,29.51
2022-08-09T09:36:40.161Z,28.79
2022-08-09T09:37:56.984Z,27.78
2022-08-09T09:39:02.470Z,28.62
2022-08-09T09:40:13.204Z,27.53
2022-08-09T09:41:49.882Z,27.56
2022-08-09T09:42:56.244Z,26.72
2022-08-09T09:44:12.760Z,27.02
2022-08-09T09:45:26.627Z,27.53
2022-08-09T09:46:45.644Z,27.83
2022-08-09T09:47:59.567Z,27.64
2022-08-09T09:49:04.989Z,27.01
2022-08-09T09:50:15.928Z,27.98
2022-08-09T09:51:26.011Z,27.40
2022-08-09T09:52:53.668Z,27.14
2022-08-09T09:54:20.269Z,27.40
2022-08-09T09:55:32.040Z,26.76
2022-08-09T09:56:37.472Z,26.34
2022-08-09T09:58:16.155Z,25.85
2022-08-09T09:59:35.163Z,25.80
2022-08-09T10:00:43.856Z,26.61
2022-08-09T10:02:02.752Z,26.51
2022-08-09T10:03:11.697Z,26.43
2022-08-09T10:04:22.772Z,25.75
2022-08-09T10:06:03.722Z,26.75
2022-08-09T10:06:57.805Z,25.81
2022-08-09T10:08:27.466Z,27.17
2022-08-09T10:09:29.644Z,25.65
2022-08-09T10:10:34.260Z,26.25
2022-08-09T10:11:59.624Z,25.05
2022-08-09T10:13:01.373Z,24.42
2022-08-09T10:14:06.941Z,25.53
2022-08-09T10:15:17.642Z,25.03
2022-08-09T10:16:58.346Z,24.38
2022-08-09T10:17:57.024Z,25.98
2022-08-09T10:19:07.412Z,26.08
2022-08-09T10:20:35.760Z,26.09
2022-08-09T10:21:49.791Z,24.30
2022-08-09T10:23:00.947Z,23.55
2022-08-09T10:24:07.102Z,23.22
2022-08-09T10:25:20.830Z,23.57
2022-08-09T10:26:26.695Z,23.42
2022-08-09T10:27:38.460Z,23.91
2022-08-09T10:28:49.026Z,25.04
2022-08-09T10:31:21.642Z,23.48
2022-08-09T10:33:01.444Z,24.90
2022-08-09T10:34:18.396Z,24.34
2022-08-09T10:35:35.610Z,23.15
2022-08-09T10:36:42.292Z,23.95
2022-08-09T10:37:44.805Z,23.75
2022-08-09T10:38:56.383Z,23.68
2022-08-09T10:40:02.316Z,24.46
2022-08-09T10:41:07.496Z,23.53
2022-08-09T10:42:10.864Z,23.29
2022-08-09T10:43:16.341Z,23.84
2022-08-09T10:44:30.501Z,23.98
2022-08-09T10:45:35.675Z,22.87
2022-08-09T10:48:16.899Z,23.99
2022-08-09T10:48:39.456Z,22.24
2022-08-09T10:49:51.761Z,22.25
2022-08-09T10:51:09.759Z,22.48
2022-08-09T10:52:32.375Z,22.24
2022-08-09T10:54:05.918Z,22.08
2022-08-09T10:55:23.580Z,22.99
2022-08-09T10:56:30.758Z,23.95
2022-08-09T10:57:37.555Z,23.41
2022-08-09T10:58:42.813Z,24.40
2022-08-09T10:59:57.730Z,24.52
2022-08-09T11:03:07.387Z,25.14
2022-08-09T11:03:14.428Z,24.03
2022-08-09T11:04:27.841Z,23.64
2022-08-09T11:05:39.200Z,26.86
2022-08-09T11:07:55.187Z,26.45
2022-08-09T11:09:06.026Z,25.30
2022-08-09T11:10:20.151Z,26.49
2022-08-09T11:11:51.637Z,25.62
2022-08-09T11:13:51.426Z,26.37
2022-08-09T11:14:48.517Z,25.77
2022-08-09T11:16:04.790Z,27.31
2022-08-09T11:17:57.026Z,25.63
2022-08-09T11:19:08.076Z,25.69
2022-08-09T11:20:22.196Z,26.33
2022-08-09T11:21:55.203Z,24.42
2022-08-09T11:23:10.505Z,24.52
2022-08-09T11:24:13.339Z,24.04
2022-08-09T11:25:18.828Z,22.63
2022-08-09T11:26:47.277Z,22.92
2022-08-09T11:28:05.589Z,23.42
2022-08-09T11:30:02.343Z,21.84
2022-08-09T11:31:49.453Z,21.77
2022-08-09T11:33:00.100Z,21.68
2022-08-09T11:34:06.669Z,21.70
2022-08-09T11:35:17.810Z,21.65
2022-08-09T11:36:35.556Z,20.71
2022-08-09T11:37:43.306Z,20.48
2022-08-09T11:39:04.951Z,20.94
2022-08-09T11:40:09.268Z,21.21
2022-08-09T11:41:37.927Z,20.67
2022-08-09T11:42:47.124Z,20.87
2022-08-09T11:43:53.428Z,20.97
2022-08-09T11:44:58.221Z,20.60
2022-08-09T11:46:01.830Z,18.81
2022-08-09T11:47:10.956Z,19.68
2022-08-09T11:48:27.016Z,19.30
2022-08-09T11:51:19.069Z,18.60
2022-08-09T11:52:54.183Z,18.83
2022-08-09T11:53:59.196Z,18.05
2022-08-09T11:55:53.471Z,18.67
2022-08-09T11:58:00.734Z,17.95
2022-08-09T11:59:06.379Z,18.77
2022-08-09T12:00:15.873Z,18.55
2022-08-09T12:02:15.894Z,19.33
2022-08-09T12:03:00.262Z,17.21
2022-08-09T12:04:32.549Z,16.97
2022-08-09T12:05:42.301Z,17.28
2022-08-09T12:06:56.621Z,16.80
2022-08-09T12:08:00.347Z,16.89
2022-08-09T12:09:15.067Z,17.54
2022-08-09T12:10:38.435Z,17.93
2022-08-09T12:12:03.107Z,17.96
2022-08-09T12:14:09.719Z,16.59
2022-08-09T12:14:41.051Z,16.19
2022-08-09T12:16:03.051Z,16.79
2022-08-09T12:17:34.578Z,17.16
2022-08-09T12:18:36.254Z,17.74
2022-08-09T12:19:42.442Z,17.11
2022-08-09T12:20:46.507Z,17.12
2022-08-09T12:21:51.572Z,16.68
2022-08-09T12:22:57.161Z,17.07
2022-08-09T12:24:09.216Z,16.81
2022-08-09T12:25:14.975Z,16.46
2022-08-09T12:26:26.032Z,16.76
2022-08-09T12:29:13.477Z,15.13
2022-08-09T12:29:29.490Z,16.74
2022-08-09T12:30:36.313Z,15.50
2022-08-09T12:31:58.933Z,15.47
2022-08-09T12:33:08.531Z,15.09
2022-08-09T12:34:18.729Z,14.80
2022-08-09T12:35:24.820Z,14.96
2022-08-09T12:36:33.608Z,15.78
2022-08-09T12:37:49.742Z,15.06
2022-08-09T12:38:54.982Z,15.62
2022-08-09T12:40:05.490Z,15.63
2022-08-09T12:41:08.295Z,16.81
2022-08-09T12:42:16.874Z,14.34
2022-08-09T12:43:23.407Z,14.65
2022-08-09T12:44:52.287Z,15.43
2022-08-09T12:45:59.767Z,14.27
2022-08-09T12:47:05.646Z,13.72
2022-08-09T12:48:27.835Z,13.70
2022-08-09T12:49:51.278Z,13.80
2022-08-09T12:50:56.235Z,14.00
2022-08-09T12:52:03.618Z,13.67
2022-08-09T12:53:18.066Z,13.85
2022-08-09T12:54:24.443Z,14.17
2022-08-09T12:56:15.668Z,13.78
2022-08-09T12:56:55.816Z,13.33
2022-08-09T12:58:11.678Z,13.91
2022-08-09T12:59:57.531Z,13.20
2022-08-09T13:00:57.580Z,13.10
2022-08-09T13:02:09.628Z,13.08
2022-08-09T13:03:24.506Z,13.24
2022-08-09T13:04:38.807Z,13.59
2022-08-09T13:05:51.649Z,13.16
2022-08-09T13:07:14.460Z,13.46
2022-08-09T13:08:39.731Z,12.99
2022-08-09T13:09:52.874Z,13.79
2022-08-09T13:11:23.121Z,13.65
2022-08-09T13:12:29.653Z,14.23
2022-08-09T13:13:38.283Z,13.19
2022-08-09T13:15:07.634Z,13.14
2022-08-09T13:16:12.563Z,12.11
2022-08-09T13:17:43.775Z,12.22
2022-08-09T13:18:49.032Z,13.22
2022-08-09T13:20:10.403Z,12.89
2022-08-09T13:22:38.313Z,11.67
2022-08-09T13:23:05.881Z,11.99
2022-08-09T13:24:53.217Z,12.09
2022-08-09T13:25:43.089Z,12.22
2022-08-09T13:26:58.563Z,11.29
2022-08-09T13:28:14.165Z,11.60
2022-08-09T13:30:02.446Z,12.18
2022-08-09T13:32:15.577Z,12.48
2022-08-09T13:32:50.088Z,12.12
2022-08-09T13:33:54.860Z,11.75
2022-08-09T13:34:59.548Z,11.95
2022-08-09T13:36:37.464Z,12.01
2022-08-09T13:37:51.855Z,10.95
2022-08-09T13:38:57.608Z,11.66
2022-08-09T13:41:56.539Z,11.76
2022-08-09T13:41:57.273Z,11.19
2022-08-09T13:42:53.388Z,11.36
2022-08-09T13:43:55.550Z,11.14
2022-08-09T13:45:00.188Z,10.76
2022-08-09T13:46:44.608Z,11.87
2022-08-09T13:47:43.974Z,12.70
2022-08-09T13:48:54.108Z,11.86
2022-08-09T13:50:01.367Z,12.07
2022-08-09T13:51:03.893Z,11.45
2022-08-09T13:52:09.667Z,11.80
2022-08-09T13:53:17.501Z,11.43
2022-08-09T13:54:20.079Z,11.02
2022-08-09T13:55:30.566Z,11.57
2022-08-09T13:56:32.562Z,10.94
2022-08-09T13:57:40.182Z,11.28
2022-08-09T13:58:45.341Z,10.24
2022-08-09T13:59:47.409Z,9.85
2022-08-09T14:00:52.743Z,10.47
2022-08-09T14:01:56.351Z,10.51
2022-08-09T14:04:02.403Z,10.82
2022-08-09T14:04:33.071Z,11.24
2022-08-09T14:05:58.604Z,10.49
2022-08-09T14:07:04.420Z,10.68
2022-08-09T14:08:10.388Z,11.42
2022-08-09T14:09:15.609Z,10.69
2022-08-09T14:10:37.257Z,10.93
2022-08-09T14:11:47.786Z,11.00
2022-08-09T14:12:52.699Z,10.21
2022-08-09T14:14:22.680Z,10.08
2022-08-09T14:16:07.148Z,9.76
2022-08-09T14:16:44.026Z,9.30
2022-08-09T14:18:06.448Z,9.06
2022-08-09T14:19:13.337Z,9.69
2022-08-09T14:20:16.074Z,9.98
2022-08-09T14:21:23.079Z,9.95
2022-08-09T14:22:25.530Z,9.41
2022-08-09T14:23:40.145Z,10.23
2022-08-09T14:24:57.500Z,9.71
2022-08-09T14:26:01.613Z,11.16
2022-08-09T14:27:15.021Z,10.00
2022-08-09T14:28:22.248Z,9.67
2022-08-09T14:30:33.281Z,10.32
2022-08-09T14:30:56.265Z,10.08
2022-08-09T14:32:10.654Z,9.99
2022-08-09T14:33:21.048Z,9.79
2022-08-09T14:34:30.831Z,9.79
2022-08-09T14:35:51.944Z,9.76
2022-08-09T14:36:55.133Z,9.84
2022-08-09T14:38:03.078Z,10.50
2022-08-09T14:39:08.869Z,9.56
2022-08-09T14:40:17.031Z,10.23
2022-08-09T14:41:34.367Z,9.61
2022-08-09T14:42:43.914Z,9.04
2022-08-09T14:43:53.557Z,9.46
2022-08-09T14:45:00.210Z,9.51
2022-08-09T14:46:56.603Z,9.34
2022-08-09T14:47:44.941Z,9.09
2022-08-09T14:48:54.251Z,9.51
2022-08-09T14:50:01.854Z,9.69
2022-08-09T14:51:07.600Z,9.70
2022-08-09T14:52:13.654Z,10.23
2022-08-09T14:53:17.283Z,10.43
2022-08-09T14:54:22.515Z,9.29
2022-08-09T14:55:35.464Z,8.91
2022-08-09T14:56:58.246Z,8.80
2022-08-09T14:58:03.543Z,9.87
2022-08-09T14:59:05.875Z,10.16
2022-08-09T15:00:19.230Z,9.70
2022-08-09T15:01:21.640Z,10.48
2022-08-09T15:02:26.387Z,10.42
2022-08-09T15:03:28.700Z,9.40
2022-08-09T15:04:33.334Z,10.62
2022-08-09T15:05:36.644Z,9.85
2022-08-09T15:06:41.574Z,9.54
2022-08-09T15:07:56.222Z,10.09
2022-08-09T15:09:01.452Z,9.37
2022-08-09T15:10:11.284Z,8.83
2022-08-09T15:11:21.656Z,8.76
2022-08-09T15:12:24.487Z,9.19
2022-08-09T15:13:48.089Z,9.25
2022-08-09T15:14:56.879Z,8.80
2022-08-09T15:15:58.933Z,8.67
2022-08-09T15:17:04.841Z,9.00
2022-08-09T15:18:14.248Z,8.86
2022-08-09T15:19:19.901Z,8.58
2022-08-09T15:21:55.589Z,8.23
2022-08-09T15:22:01.190Z,8.25
2022-08-09T15:24:01.704Z,8.24
2022-08-09T15:24:33.075Z,8.70
2022-08-09T15:25:40.801Z,8.89
2022-08-09T15:26:48.610Z,8.26
2022-08-09T15:28:00.522Z,8.08
2022-08-09T15:29:06.396Z,8.14
2022-08-09T15:30:55.571Z,8.71
2022-08-09T15:31:41.965Z,8.18
2022-08-09T15:32:45.719Z,8.38
2022-08-09T15:34:18.225Z,7.88
2022-08-09T15:35:18.049Z,8.63
2022-08-09T15:36:25.482Z,8.15
2022-08-09T15:37:57.186Z,8.73
2022-08-09T15:39:03.976Z,8.40